createdAt,value
2019-04-13T00:00:27.447Z,102131.12
2019-04-13T00:02:30.776Z,102126.10
2019-04-13T00:04:45.769Z,102128.66
2019-04-13T00:06:51.204Z,102131.44
2019-04-13T00:08:52.610Z,102130.60
2019-04-13T00:10:58.525Z,102129.14
2019-04-13T00:12:59.962Z,102128.94
2019-04-13T00:15:01.464Z,102124.27
2019-04-13T00:17:04.339Z,102124.77
2019-04-13T00:19:05.778Z,102118.75
2019-04-13T00:21:07.176Z,102120.05
2019-04-13T00:23:08.564Z,102117.62
2019-04-13T00:25:10.084Z,102123.62
2019-04-13T00:27:11.537Z,102119.23
2019-04-13T00:29:12.920Z,102117.10
2019-04-13T00:31:14.365Z,102115.92
2019-04-13T00:33:15.745Z,102115.50
2019-04-13T00:35:17.154Z,102118.08
2019-04-13T00:37:18.606Z,102117.73
2019-04-13T00:39:20.001Z,102116.95
2019-04-13T00:41:21.450Z,102114.96
2019-04-13T00:43:22.941Z,102112.21
2019-04-13T00:45:24.334Z,102115.64
2019-04-13T00:47:25.949Z,102115.77
2019-04-13T00:49:27.350Z,102112.53
2019-04-13T00:51:28.732Z,102118.11
2019-04-13T00:53:30.176Z,102109.92
2019-04-13T00:55:31.575Z,102111.23
2019-04-13T00:57:32.985Z,102109.30
2019-04-13T00:59:34.434Z,102107.14
2019-04-13T01:01:35.838Z,102106.86
2019-04-13T01:03:40.499Z,102109.03
2019-04-13T01:05:41.934Z,102110.61
2019-04-13T01:07:43.315Z,102112.56
2019-04-13T01:09:44.783Z,102111.77
2019-04-13T01:11:46.193Z,102114.72
2019-04-13T01:13:47.597Z,102107.53
2019-04-13T01:15:49.045Z,102112.41
2019-04-13T01:17:50.409Z,102105.70
2019-04-13T01:19:51.856Z,102108.81
2019-04-13T01:21:53.283Z,102109.51
2019-04-13T01:23:54.770Z,102108.88
2019-04-13T01:25:56.190Z,102104.92
2019-04-13T01:27:57.623Z,102105.55
2019-04-13T01:29:59.006Z,102106.19
2019-04-13T01:32:00.419Z,102104.10
2019-04-13T01:34:02.047Z,102104.63
2019-04-13T01:36:03.440Z,102101.03
2019-04-13T01:38:04.844Z,102103.31
2019-04-13T01:40:06.491Z,102103.95
2019-04-13T01:42:07.870Z,102101.16
2019-04-13T01:44:09.290Z,102101.00
2019-04-13T01:46:10.721Z,102104.24
2019-04-13T01:48:12.630Z,102100.81
2019-04-13T01:50:14.470Z,102101.81
2019-04-13T01:52:15.883Z,102099.47
2019-04-13T01:54:17.277Z,102105.69
2019-04-13T01:56:18.730Z,102094.17
2019-04-13T01:58:20.181Z,102097.89
2019-04-13T02:00:29.468Z,102099.38
2019-04-13T02:02:38.394Z,102097.30
2019-04-13T02:04:44.617Z,102092.42
2019-04-13T02:07:06.017Z,102096.44
2019-04-13T02:09:14.763Z,102095.93
2019-04-13T02:11:18.060Z,102095.30
2019-04-13T02:13:19.505Z,102089.75
2019-04-13T02:15:20.901Z,102090.10
2019-04-13T02:17:22.290Z,102091.41
2019-04-13T02:19:23.791Z,102090.89
2019-04-13T02:21:25.214Z,102089.43
2019-04-13T02:23:26.653Z,102089.10
2019-04-13T02:25:28.078Z,102088.11
2019-04-13T02:27:29.463Z,102087.63
2019-04-13T02:29:30.875Z,102084.36
2019-04-13T02:31:32.300Z,102089.32
2019-04-13T02:33:33.965Z,102086.03
2019-04-13T02:35:36.735Z,102083.12
2019-04-13T02:37:38.433Z,102081.18
2019-04-13T02:39:39.911Z,102080.63
2019-04-13T02:41:41.458Z,102087.95
2019-04-13T02:43:42.867Z,102087.80
2019-04-13T02:45:44.245Z,102089.08
2019-04-13T02:47:45.677Z,102085.56
2019-04-13T02:49:47.120Z,102080.85
2019-04-13T02:51:48.541Z,102087.02
2019-04-13T02:53:49.941Z,102083.47
2019-04-13T02:55:51.359Z,102082.48
2019-04-13T02:57:52.764Z,102082.28
2019-04-13T02:59:54.254Z,102084.98
2019-04-13T03:01:56.034Z,102082.78
2019-04-13T03:03:57.508Z,102081.27
2019-04-13T03:05:58.889Z,102085.05
2019-04-13T03:08:00.360Z,102081.14
2019-04-13T03:10:04.766Z,102080.69
2019-04-13T03:12:06.172Z,102080.34
2019-04-13T03:14:07.793Z,102081.30
2019-04-13T03:16:11.203Z,102079.83
2019-04-13T03:18:14.510Z,102078.73
2019-04-13T03:20:23.832Z,102075.12
2019-04-13T03:22:25.224Z,102075.34
2019-04-13T03:24:26.644Z,102077.00
2019-04-13T03:26:28.026Z,102066.17
2019-04-13T03:28:29.473Z,102072.73
2019-04-13T03:32:56.740Z,102072.89
2019-04-13T03:35:17.985Z,102015.43
2019-04-13T03:37:39.281Z,102069.63
2019-04-13T03:40:00.551Z,102069.64
2019-04-13T03:42:22.115Z,102064.75
2019-04-13T03:44:43.513Z,102012.94
2019-04-13T03:47:04.874Z,102013.31
2019-04-13T03:49:26.144Z,102070.73
2019-04-13T03:51:47.401Z,102009.67
2019-04-13T03:54:08.909Z,102013.30
2019-04-13T03:56:50.041Z,102013.41
2019-04-13T03:59:11.351Z,102006.39
2019-04-13T04:01:32.615Z,102004.89
2019-04-13T04:03:53.923Z,102062.96
2019-04-13T04:06:15.248Z,102061.72
2019-04-13T04:08:30.074Z,102014.59
2019-04-13T04:10:51.568Z,102065.39
2019-04-13T04:13:12.839Z,101998.64
2019-04-13T04:15:34.094Z,102060.52
2019-04-13T04:17:55.393Z,102014.23
2019-04-13T04:20:16.674Z,102070.06
2019-04-13T04:22:37.963Z,102001.83
2019-04-13T04:24:59.259Z,102066.46
2019-04-13T04:27:20.603Z,102069.63
2019-04-13T04:29:22.007Z,102069.60
2019-04-13T04:31:43.395Z,102017.52
2019-04-13T04:34:04.695Z,102019.33
2019-04-13T04:36:26.075Z,102073.34
2019-04-13T04:38:47.407Z,102075.97
2019-04-13T04:41:08.687Z,102023.98
2019-04-13T04:43:29.963Z,102074.78
2019-04-13T04:45:51.562Z,102076.71
2019-04-13T04:50:07.338Z,102034.44
2019-04-13T04:52:28.627Z,102020.79
2019-04-13T04:54:49.872Z,102077.09
2019-04-13T04:57:11.186Z,102088.06
2019-04-13T04:59:32.440Z,102074.78
2019-04-13T05:01:53.696Z,102014.59
2019-04-13T05:04:15.008Z,102078.24
2019-04-13T05:06:36.355Z,102025.44
2019-04-13T05:09:20.085Z,102075.17
2019-04-13T05:14:52.764Z,102033.99
2019-04-13T05:20:58.252Z,102083.16
2019-04-13T05:23:19.142Z,102083.34
2019-04-13T05:25:41.118Z,102028.11
2019-04-13T05:28:38.730Z,102083.98
2019-04-13T05:31:11.709Z,102088.89
2019-04-13T05:34:13.510Z,102091.83
2019-04-13T05:36:19.168Z,102091.66
2019-04-13T05:38:25.295Z,102086.66
2019-04-13T05:41:09.887Z,102093.27
2019-04-13T05:46:40.564Z,102049.22
2019-04-13T05:58:12.153Z,102036.83
2019-04-13T06:01:29.798Z,102041.84
2019-04-13T06:25:38.834Z,102102.69
2019-04-13T06:31:43.812Z,102042.75
2019-04-13T06:34:30.190Z,102100.61
2019-04-13T06:36:52.515Z,102052.41
2019-04-13T06:42:45.441Z,102035.45
2019-04-13T06:45:27.431Z,102042.95
2019-04-13T06:48:23.690Z,102029.45
2019-04-13T06:56:34.738Z,102030.67
2019-04-13T06:58:58.334Z,102023.00
2019-04-13T07:01:39.608Z,102091.81
2019-04-13T07:04:01.365Z,102084.97
2019-04-13T07:06:22.840Z,102090.70
2019-04-13T07:09:04.608Z,102089.70
2019-04-13T07:11:46.225Z,102043.17
2019-04-13T07:19:48.889Z,102087.19
2019-04-13T07:22:12.525Z,102034.83
2019-04-13T07:24:34.757Z,102088.50
2019-04-13T07:26:56.686Z,102031.90
2019-04-13T07:29:18.300Z,102027.63
2019-04-13T07:31:40.151Z,102087.98
2019-04-13T07:34:01.748Z,102096.47
2019-04-13T07:36:03.443Z,102092.32
2019-04-13T07:38:25.133Z,102091.31
2019-04-13T07:40:49.120Z,102092.46
2019-04-13T07:43:23.526Z,102032.16
2019-04-13T07:46:05.330Z,102035.64
2019-04-13T07:48:49.701Z,102031.77
2019-04-13T07:57:05.402Z,102022.64
2019-04-13T07:59:48.119Z,102030.48
2019-04-13T08:02:30.187Z,102036.53
2019-04-13T08:04:52.093Z,102085.89
2019-04-13T08:07:14.054Z,102064.37
2019-04-13T08:09:35.575Z,102083.59
2019-04-13T08:11:56.963Z,102084.09
2019-04-13T08:20:33.977Z,102036.14
2019-04-13T08:23:14.800Z,102084.02
2019-04-13T08:25:16.465Z,102084.95
2019-04-13T08:27:18.701Z,102081.56
2019-04-13T08:29:21.106Z,102083.95
2019-04-13T08:31:26.445Z,102086.70
2019-04-13T08:33:28.651Z,102082.89
2019-04-13T08:35:30.422Z,102085.02
2019-04-13T08:37:33.662Z,102084.31
2019-04-13T08:39:36.854Z,102087.66
2019-04-13T08:41:38.749Z,102089.12
2019-04-13T08:43:40.456Z,102086.47
2019-04-13T08:45:44.220Z,102083.14
2019-04-13T08:47:47.123Z,102078.40
2019-04-13T08:49:48.739Z,102080.73
2019-04-13T08:51:51.063Z,102080.86
2019-04-13T08:53:52.934Z,102076.15
2019-04-13T08:55:54.419Z,102077.17
2019-04-13T08:57:56.669Z,102077.94
2019-04-13T08:59:58.193Z,102078.03
2019-04-13T09:01:59.617Z,102080.59
2019-04-13T09:04:00.987Z,102078.57
2019-04-13T09:06:02.352Z,102079.22
2019-04-13T09:08:03.878Z,102080.48
2019-04-13T09:10:07.124Z,102082.11
2019-04-13T09:12:11.417Z,102072.02
2019-04-13T09:14:14.086Z,102083.70
2019-04-13T09:16:15.299Z,102077.31
2019-04-13T09:18:35.004Z,102055.39
2019-04-13T09:20:38.795Z,102071.64
2019-04-13T09:22:41.970Z,102072.07
2019-04-13T09:24:43.429Z,102069.52
2019-04-13T09:26:44.825Z,102073.41
2019-04-13T09:28:46.221Z,102067.66
2019-04-13T09:30:47.594Z,102067.17
2019-04-13T09:32:49.002Z,102054.30
2019-04-13T09:34:50.398Z,102059.90
2019-04-13T09:36:51.809Z,102056.14
2019-04-13T09:38:54.113Z,102063.34
2019-04-13T09:40:55.477Z,102058.08
2019-04-13T09:42:57.886Z,102058.41
2019-04-13T09:45:03.437Z,102066.30
2019-04-13T09:47:06.336Z,102064.97
2019-04-13T09:49:08.012Z,102056.55
2019-04-13T09:51:09.376Z,102058.36
2019-04-13T09:53:10.769Z,102052.06
2019-04-13T09:55:15.675Z,102051.86
2019-04-13T09:57:15.587Z,102052.34
2019-04-13T09:59:16.943Z,102052.86
2019-04-13T10:01:18.320Z,102050.05
2019-04-13T10:03:19.749Z,102048.64
2019-04-13T10:05:21.135Z,102042.19
2019-04-13T10:07:22.522Z,102045.19
2019-04-13T10:09:23.916Z,102041.48
2019-04-13T10:11:30.436Z,102042.45
2019-04-13T10:13:39.373Z,102044.68
2019-04-13T10:15:48.805Z,102040.06
2019-04-13T10:17:55.548Z,102038.62
2019-04-13T10:19:56.914Z,102034.52
2019-04-13T10:21:58.284Z,102035.59
2019-04-13T10:23:59.693Z,102031.02
2019-04-13T10:26:01.079Z,102026.42
2019-04-13T10:28:02.441Z,102027.93
2019-04-13T10:30:04.786Z,102020.39
2019-04-13T10:32:06.339Z,102014.17
2019-04-13T10:34:07.904Z,102019.11
2019-04-13T10:36:09.320Z,102017.73
2019-04-13T10:38:10.711Z,102012.91
2019-04-13T10:40:14.760Z,102009.01
2019-04-13T10:42:15.546Z,102011.58
2019-04-13T10:44:17.516Z,102009.25
2019-04-13T10:46:29.563Z,102002.70
2019-04-13T10:48:35.739Z,102007.23
2019-04-13T10:50:39.042Z,102002.60
2019-04-13T10:52:40.415Z,102001.45
2019-04-13T10:54:41.820Z,102006.98
2019-04-13T10:56:43.213Z,102006.54
2019-04-13T10:58:44.583Z,102002.22
2019-04-13T11:00:45.984Z,101998.96
2019-04-13T11:02:47.394Z,101998.39
2019-04-13T11:04:48.758Z,102003.13
2019-04-13T11:06:52.626Z,102004.27
2019-04-13T11:08:53.453Z,102006.57
2019-04-13T11:10:54.842Z,101995.14
2019-04-13T11:12:56.234Z,101998.25
2019-04-13T11:14:57.643Z,101993.80
2019-04-13T11:16:59.262Z,101998.42
2019-04-13T11:19:00.636Z,101997.14
2019-04-13T11:21:02.886Z,101996.66
2019-04-13T11:23:04.358Z,101992.45
2019-04-13T11:25:06.257Z,101987.88
2019-04-13T11:27:08.263Z,101988.52
2019-04-13T11:29:11.267Z,101986.88
2019-04-13T11:31:12.933Z,101987.35
2019-04-13T11:33:14.334Z,101987.75
2019-04-13T11:35:15.708Z,101982.23
2019-04-13T11:37:17.136Z,101985.00
2019-04-13T11:39:18.643Z,101988.47
2019-04-13T11:41:38.485Z,101982.34
2019-04-13T11:43:58.120Z,101985.53
2019-04-13T11:46:04.046Z,101982.78
2019-04-13T11:48:07.318Z,101990.34
2019-04-13T11:50:10.929Z,101983.44
2019-04-13T11:52:12.311Z,101983.58
2019-04-13T11:54:13.748Z,101986.56
2019-04-13T11:56:15.261Z,101986.65
2019-04-13T11:58:16.640Z,101983.55
2019-04-13T12:00:37.724Z,101977.44
2019-04-13T12:02:41.040Z,101979.28
2019-04-13T12:04:44.344Z,101980.90
2019-04-13T12:07:04.238Z,101974.38
2019-04-13T12:09:19.403Z,101982.83
2019-04-13T12:11:25.336Z,101976.77
2019-04-13T12:13:31.753Z,101980.36
2019-04-13T12:15:38.803Z,101984.00
2019-04-13T12:17:52.006Z,101982.51
2019-04-13T12:20:01.374Z,101980.20
2019-04-13T12:22:04.744Z,101978.41
2019-04-13T12:24:08.142Z,101979.68
2019-04-13T12:26:09.519Z,101979.52
2019-04-13T12:28:10.945Z,101972.07
2019-04-13T12:30:23.511Z,101969.67
2019-04-13T12:32:26.696Z,101969.78
2019-04-13T12:34:28.104Z,101969.78
2019-04-13T12:36:29.517Z,101966.20
2019-04-13T12:38:31.116Z,101966.03
2019-04-13T12:40:34.906Z,101973.17
2019-04-13T12:42:36.494Z,101966.23
2019-04-13T12:44:38.403Z,101971.44
2019-04-13T12:46:40.035Z,101963.83
2019-04-13T12:48:41.399Z,101960.59
2019-04-13T12:50:42.875Z,101958.50
2019-04-13T12:52:44.294Z,101956.91
2019-04-13T12:54:46.010Z,101956.20
2019-04-13T12:56:47.670Z,101961.20
2019-04-13T12:58:49.641Z,101952.06
2019-04-13T13:00:59.043Z,101945.73
2019-04-13T13:02:59.763Z,101949.86
2019-04-13T13:05:03.433Z,101943.38
2019-04-13T13:07:06.662Z,101946.56
2019-04-13T13:09:13.543Z,101947.27
2019-04-13T13:11:13.310Z,101946.73
2019-04-13T13:13:14.659Z,101949.23
2019-04-13T13:15:16.369Z,101940.98
2019-04-13T13:17:18.453Z,101945.76
2019-04-13T13:19:21.133Z,101941.75
2019-04-13T13:21:22.538Z,101946.62
2019-04-13T13:23:23.967Z,101944.66
2019-04-13T13:25:25.496Z,101941.80
2019-04-13T13:27:26.912Z,101938.48
2019-04-13T13:29:28.285Z,101938.50
2019-04-13T13:31:29.976Z,101938.45
2019-04-13T13:33:31.370Z,101935.00
2019-04-13T13:35:32.951Z,101943.09
2019-04-13T13:37:34.463Z,101940.57
2019-04-13T13:39:35.930Z,101937.08
2019-04-13T13:41:37.305Z,101932.58
2019-04-13T13:43:38.704Z,101935.12
2019-04-13T13:45:40.244Z,101934.61
2019-04-13T13:47:41.707Z,101941.89
2019-04-13T13:49:43.175Z,101940.28
2019-04-13T13:51:55.575Z,101937.52
2019-04-13T13:53:47.854Z,101934.88
2019-04-13T13:55:49.251Z,101928.77
2019-04-13T13:57:52.539Z,101928.39
2019-04-13T13:59:53.936Z,101930.70
2019-04-13T14:01:57.471Z,101924.30
2019-04-13T14:03:58.842Z,101926.12
2019-04-13T14:06:00.216Z,101916.44
2019-04-13T14:08:03.836Z,101925.25
2019-04-13T14:10:14.818Z,101922.94
2019-04-13T14:12:16.199Z,101925.84
2019-04-13T14:14:17.571Z,101924.30
2019-04-13T14:16:18.985Z,101929.42
2019-04-13T14:18:20.392Z,101919.34
2019-04-13T14:20:21.780Z,101923.97
2019-04-13T14:22:23.193Z,101921.94
2019-04-13T14:24:24.610Z,101925.41
2019-04-13T14:26:26.080Z,101919.52
2019-04-13T14:28:27.458Z,101923.88
2019-04-13T14:30:28.860Z,101916.05
2019-04-13T14:32:30.631Z,101915.42
2019-04-13T14:34:32.002Z,101917.57
2019-04-13T14:36:35.581Z,101918.41
2019-04-13T14:38:36.798Z,101909.42
2019-04-13T14:40:38.759Z,101912.25
2019-04-13T14:42:40.717Z,101913.94
2019-04-13T14:44:42.082Z,101905.38
2019-04-13T14:46:43.468Z,101907.55
2019-04-13T14:48:44.874Z,101913.30
2019-04-13T14:50:46.281Z,101916.42
2019-04-13T14:52:47.803Z,101912.30
2019-04-13T14:54:50.088Z,101912.53
2019-04-13T14:56:51.555Z,101911.80
2019-04-13T14:58:53.171Z,101908.92
2019-04-13T15:00:54.552Z,101907.48
2019-04-13T15:02:55.949Z,101918.14
2019-04-13T15:04:57.346Z,101909.98
2019-04-13T15:06:58.789Z,101914.05
2019-04-13T15:09:00.182Z,101910.59
2019-04-13T15:11:16.583Z,101916.14
2019-04-13T15:13:04.900Z,101907.99
2019-04-13T15:15:07.208Z,101910.31
2019-04-13T15:17:09.835Z,101907.52
2019-04-13T15:19:28.207Z,101906.29
2019-04-13T15:21:20.241Z,101913.67
2019-04-13T15:23:21.639Z,101911.60
2019-04-13T15:25:23.116Z,101908.17
2019-04-13T15:27:25.085Z,101911.84
2019-04-13T15:29:30.297Z,101908.42
2019-04-13T15:31:31.802Z,101903.12
2019-04-13T15:33:33.226Z,101900.84
2019-04-13T15:35:34.760Z,101899.97
2019-04-13T15:37:41.889Z,101905.76
2019-04-13T15:39:43.618Z,101904.25
2019-04-13T15:41:57.453Z,101910.39
2019-04-13T15:43:48.465Z,101905.20
2019-04-13T15:45:51.021Z,101907.09
2019-04-13T15:47:53.168Z,101910.30
2019-04-13T15:49:54.618Z,101908.43
2019-04-13T15:51:57.143Z,101908.13
2019-04-13T15:54:02.024Z,101905.82
2019-04-13T15:56:02.495Z,101907.34
2019-04-13T15:58:04.451Z,101909.98
2019-04-13T16:00:06.820Z,101903.88
2019-04-13T16:02:08.269Z,101904.23
2019-04-13T16:04:09.673Z,101904.15
2019-04-13T16:06:11.053Z,101909.27
2019-04-13T16:08:13.580Z,101906.20
2019-04-13T16:10:19.998Z,101902.73
2019-04-13T16:12:25.931Z,101905.47
2019-04-13T16:14:27.337Z,101901.50
2019-04-13T16:16:31.474Z,101902.91
2019-04-13T16:18:32.523Z,101905.19
2019-04-13T16:20:33.975Z,101911.08
2019-04-13T16:22:36.494Z,101904.68
2019-04-13T16:24:37.952Z,101902.41
2019-04-13T16:26:39.326Z,101907.53
2019-04-13T16:28:46.150Z,101908.84
2019-04-13T16:31:05.325Z,101908.28
2019-04-13T16:33:15.194Z,101911.59
2019-04-13T16:35:28.643Z,101909.02
2019-04-13T16:37:32.097Z,101912.09
2019-04-13T16:39:34.740Z,101910.80
2019-04-13T16:41:36.271Z,101912.23
2019-04-13T16:43:40.864Z,101910.59
2019-04-13T16:45:44.443Z,101907.21
2019-04-13T16:47:47.725Z,101909.84
2019-04-13T16:49:51.039Z,101914.53
2019-04-13T16:51:57.027Z,101913.12
2019-04-13T16:54:02.031Z,101917.38
2019-04-13T16:56:23.020Z,101915.67
2019-04-13T16:58:26.412Z,101918.28
2019-04-13T17:00:47.493Z,101910.63
2019-04-13T17:02:54.690Z,101917.89
2019-04-13T17:04:58.753Z,101914.25
2019-04-13T17:07:01.209Z,101906.74
2019-04-13T17:09:04.286Z,101907.22
2019-04-13T17:11:06.932Z,101909.39
2019-04-13T17:13:09.580Z,101912.23
2019-04-13T17:15:11.222Z,101915.83
2019-04-13T17:17:13.541Z,101915.96
2019-04-13T17:19:26.217Z,101917.50
2019-04-13T17:21:33.516Z,101917.33
2019-04-13T17:23:46.344Z,101921.75
2019-04-13T17:25:49.893Z,101920.67
2019-04-13T17:28:05.988Z,101920.86
2019-04-13T17:30:13.256Z,101920.38
2019-04-13T17:32:22.798Z,101916.13
2019-04-13T17:34:26.171Z,101917.24
2019-04-13T17:36:27.694Z,101920.73
2019-04-13T17:38:29.374Z,101918.97
2019-04-13T17:40:32.647Z,101916.73
2019-04-13T17:42:53.332Z,101920.11
2019-04-13T17:45:02.756Z,101921.52
2019-04-13T17:47:10.084Z,101922.39
2019-04-13T17:49:23.356Z,101927.36
2019-04-13T17:51:35.766Z,101929.60
2019-04-13T17:53:45.261Z,101933.22
2019-04-13T17:55:55.595Z,101936.73
2019-04-13T17:58:02.571Z,101940.17
2019-04-13T18:00:10.196Z,101940.75
2019-04-13T18:02:30.227Z,101939.73
2019-04-13T18:04:37.310Z,101941.87
2019-04-13T18:06:57.162Z,101942.06
2019-04-13T18:09:01.873Z,101945.37
2019-04-13T18:11:08.848Z,101939.61
2019-04-13T18:13:12.299Z,101945.65
2019-04-13T18:15:18.806Z,101944.99
2019-04-13T18:17:24.773Z,101948.42
2019-04-13T18:19:26.215Z,101951.41
2019-04-13T18:21:28.520Z,101954.97
2019-04-13T18:23:29.971Z,101954.11
2019-04-13T18:25:40.408Z,101956.98
2019-04-13T18:27:34.966Z,101961.03
2019-04-13T18:29:36.417Z,101957.27
2019-04-13T18:31:38.014Z,101956.50
2019-04-13T18:33:39.421Z,101962.75
2019-04-13T18:35:44.034Z,101963.53
2019-04-13T18:37:45.138Z,101961.61
2019-04-13T18:39:49.531Z,101961.72
2019-04-13T18:41:50.591Z,101962.37
2019-04-13T18:43:52.123Z,101966.88
2019-04-13T18:45:53.839Z,101970.95
2019-04-13T18:47:55.613Z,101973.03
2019-04-13T18:49:57.389Z,101976.20
2019-04-13T18:51:58.853Z,101978.89
2019-04-13T18:54:00.844Z,101973.43
2019-04-13T18:56:02.618Z,101981.27
2019-04-13T18:58:05.461Z,101979.08
2019-04-13T19:00:09.393Z,101982.73
2019-04-13T19:02:11.119Z,101985.04
2019-04-13T19:04:12.507Z,101983.15
2019-04-13T19:06:26.318Z,101980.30
2019-04-13T19:08:17.252Z,101986.58
2019-04-13T19:10:18.636Z,101985.45
2019-04-13T19:12:20.018Z,101989.58
2019-04-13T19:14:21.520Z,101990.76
2019-04-13T19:16:22.893Z,101985.98
2019-04-13T19:18:24.282Z,101986.77
2019-04-13T19:20:25.676Z,101987.39
2019-04-13T19:22:27.057Z,101994.77
2019-04-13T19:24:28.421Z,101991.67
2019-04-13T19:26:29.837Z,101992.05
2019-04-13T19:28:31.258Z,101988.02
2019-04-13T19:30:33.470Z,101991.81
2019-04-13T19:32:35.336Z,101989.71
2019-04-13T19:34:36.971Z,101991.09
2019-04-13T19:36:38.676Z,101989.33
2019-04-13T19:38:40.588Z,101984.36
2019-04-13T19:40:42.279Z,101987.14
2019-04-13T19:42:43.791Z,101986.22
2019-04-13T19:44:45.545Z,101986.27
2019-04-13T19:46:47.298Z,101980.66
2019-04-13T19:48:49.086Z,101982.91
2019-04-13T19:50:50.960Z,101984.72
2019-04-13T19:53:06.411Z,101985.23
2019-04-13T19:55:08.724Z,101985.42
2019-04-13T19:57:10.677Z,101985.04
2019-04-13T19:59:12.373Z,101982.98
2019-04-13T20:01:15.944Z,101984.58
2019-04-13T20:03:17.990Z,101979.98
2019-04-13T20:05:19.674Z,101982.26
2019-04-13T20:07:21.605Z,101976.41
2019-04-13T20:09:24.610Z,101979.82
2019-04-13T20:11:26.224Z,101972.69
2019-04-13T20:13:39.023Z,101966.45
2019-04-13T20:15:31.452Z,101967.62
2019-04-13T20:17:33.489Z,101973.47
2019-04-13T20:19:35.255Z,101974.71
2019-04-13T20:21:37.258Z,101971.77
2019-04-13T20:23:39.053Z,101975.38
2019-04-13T20:25:43.881Z,101973.78
2019-04-13T20:27:47.754Z,101975.52
2019-04-13T20:29:49.526Z,101977.10
2019-04-13T20:31:51.449Z,101979.33
2019-04-13T20:33:53.070Z,101979.20
2019-04-13T20:36:02.937Z,101975.63
2019-04-13T20:38:00.475Z,101974.05
2019-04-13T20:40:09.919Z,101969.48
2019-04-13T20:42:18.198Z,101972.80
2019-04-13T20:44:17.913Z,101974.09
2019-04-13T20:46:19.276Z,101979.30
2019-04-13T20:48:22.916Z,101977.62
2019-04-13T20:50:25.239Z,101977.95
2019-04-13T20:52:28.922Z,101977.69
2019-04-13T20:54:31.048Z,101982.09
2019-04-13T20:56:34.022Z,101975.89
2019-04-13T20:58:35.938Z,101977.36
2019-04-13T21:00:37.811Z,101981.91
2019-04-13T21:02:39.683Z,101982.31
2019-04-13T21:04:41.744Z,101985.75
2019-04-13T21:06:43.990Z,101983.84
2019-04-13T21:08:45.829Z,101980.77
2019-04-13T21:10:47.928Z,101986.13
2019-04-13T21:12:49.765Z,101984.42
2019-04-13T21:14:52.188Z,101985.41
2019-04-13T21:16:56.025Z,101988.73
2019-04-13T21:18:58.128Z,101988.61
2019-04-13T21:21:00.022Z,101992.09
2019-04-13T21:23:01.813Z,101985.63
2019-04-13T21:25:05.643Z,101984.39
2019-04-13T21:27:07.493Z,101983.43
2019-04-13T21:29:11.324Z,101977.06
2019-04-13T21:31:13.179Z,101979.33
2019-04-13T21:33:16.902Z,101985.33
2019-04-13T21:35:18.876Z,101984.55
2019-04-13T21:37:20.709Z,101983.03
2019-04-13T21:39:22.521Z,101986.27
2019-04-13T21:41:24.540Z,101979.63
2019-04-13T21:43:26.248Z,101979.20
2019-04-13T21:45:29.563Z,101978.55
2019-04-13T21:47:31.372Z,101982.22
2019-04-13T21:49:33.972Z,101980.39
2019-04-13T21:51:44.469Z,101979.69
2019-04-13T21:53:48.483Z,101976.67
2019-04-13T21:55:50.494Z,101979.05
2019-04-13T21:57:52.266Z,101975.07
2019-04-13T21:59:54.130Z,101975.98
2019-04-13T22:02:04.897Z,101973.96
2019-04-13T22:04:08.747Z,101973.33
2019-04-13T22:06:10.743Z,101969.05
2019-04-13T22:08:12.670Z,101970.63
2019-04-13T22:10:15.758Z,101967.03
2019-04-13T22:12:17.887Z,101971.24
2019-04-13T22:14:32.553Z,101971.14
2019-04-13T22:16:23.791Z,101968.45
2019-04-13T22:18:25.803Z,101975.81
2019-04-13T22:20:29.722Z,101970.45
2019-04-13T22:22:34.227Z,101976.03
2019-04-13T22:24:35.959Z,101969.86
2019-04-13T22:26:37.587Z,101973.28
2019-04-13T22:28:41.134Z,101971.14
2019-04-13T22:30:47.809Z,101974.70
2019-04-13T22:32:50.123Z,101979.55
2019-04-13T22:34:58.712Z,101981.84
2019-04-13T22:37:01.582Z,101974.94
2019-04-13T22:39:06.017Z,101976.73
2019-04-13T22:41:08.961Z,101977.71
2019-04-13T22:43:11.182Z,101978.02
2019-04-13T22:45:15.227Z,101977.47
2019-04-13T22:47:19.357Z,101973.73
2019-04-13T22:49:25.937Z,101973.26
2019-04-13T22:51:31.618Z,101977.75
2019-04-13T22:53:39.477Z,101975.22
2019-04-13T22:55:43.062Z,101978.37
2019-04-13T22:57:48.438Z,101978.06
2019-04-13T22:59:50.812Z,101982.23
2019-04-13T23:02:03.787Z,101980.34
2019-04-13T23:04:05.974Z,101982.02
2019-04-13T23:06:07.848Z,101986.59
2019-04-13T23:08:09.589Z,101981.02
2019-04-13T23:10:11.686Z,101982.06
2019-04-13T23:12:15.949Z,101982.28
2019-04-13T23:14:17.905Z,101979.92
2019-04-13T23:16:19.797Z,101980.50
2019-04-13T23:18:21.801Z,101980.05
2019-04-13T23:20:23.642Z,101980.06
2019-04-13T23:22:25.573Z,101978.34
2019-04-13T23:24:29.983Z,101979.34
2019-04-13T23:26:31.890Z,101977.14
2019-04-13T23:28:33.810Z,101982.98
2019-04-13T23:30:35.915Z,101977.33
2019-04-13T23:32:40.161Z,101976.11
2019-04-13T23:34:42.212Z,101978.50
2019-04-13T23:36:44.399Z,101975.75
2019-04-13T23:38:46.496Z,101975.07
2019-04-13T23:40:51.132Z,101969.06
2019-04-13T23:42:52.966Z,101968.02
2019-04-13T23:45:09.101Z,101969.33
2019-04-13T23:46:59.057Z,101971.08
2019-04-13T23:49:01.316Z,101967.60
2019-04-13T23:51:03.505Z,101966.29
2019-04-13T23:53:05.525Z,101967.84
2019-04-13T23:55:09.758Z,101967.44
2019-04-13T23:57:29.291Z,101971.98
2019-04-13T23:59:50.250Z,101967.06
